Tiempo atmosférico en la estación meteorológica de Huelva, Ronda Este, Huelva (19 m.)



Fecha
DESCASC
Temp. máxima en grados centígrados (hora)
DESCASC
Temp. mínima en grados centígrados (hora)
DESCASC
Temp. media en grados centígrados
DESCASC
Racha de viento máxima en m/sg (hora)
DESCASC
Velocidad máxima media en intervalos de 10 minutos(hora)
DESCASC
Precipitaciones diarias en mm
DESCASC
Precipitaciones de 00:00 a 06:00 en mm
DESCASC
Precipitaciones de 06:00 a 12:00 en mm
DESCASC
Precipitaciones de 12:00 a 18:00 en mm
DESCASC
Precipitaciones de 18:00 a 24:00 en mm
DESCASC
22-11-2020 20.2 (16:30) 9.9 (08:20) 15.1 7.22 (15:10) 3.89 (13:10) 0 0 0 0 0
21-11-2020 22.7 (15:10) 10 (05:50) 16.4 6.39 (15:10) 3.61 (15:20) 0 0 0 0 0
20-11-2020 23.6 (15:50) 11.2 (06:10) 17.4 9.44 (14:10) 4.72 (14:10) 0 0 0 0 0
19-11-2020 25.3 (16:10) 12 (00:00) 18.6 8.06 (14:30) 4.72 (14:20) 0 0 0 0 0
18-11-2020 24.1 (14:50) 13.3 (00:00) 18.7 4.44 (17:50) 3.06 (17:50) 0 0 0 0 0
17-11-2020 21.9 (16:20) 15 (00:00) 18.4 3.89 (15:50) 2.5 (14:50) 0.4 0.2 0.2 0 0
16-11-2020 22.9 (14:30) 13.9 (00:00) 18.4 5.83 (16:10) 4.17 (16:00) 0 0 0 0 0
15-11-2020 25.1 (14:30) 16.9 (00:00) 21 7.78 (16:20) 5.83 (16:20) 0 0 0 0 0
14-11-2020 21.1 (15:00) 16.1 (00:00) 18.6 8.33 (03:10) 5.28 (12:40) 13.2 8.4 3.6 1.2 0
13-11-2020 22.1 (14:20) 11.7 (00:00) 16.9 8.33 (15:20) 6.39 (14:30) 0 0 0 0 0
12-11-2020 22.7 (16:00) 12.3 (00:00) 17.5 6.67 (11:10) 4.44 (11:10) 0 0 0 0 0
11-11-2020 21.9 (14:20) 11.3 (00:00) 16.6 6.67 (13:50) 3.89 (07:20) 0 0 0 0 0
10-11-2020 22 (16:10) 11.7 (00:00) 16.8 8.61 (16:20) 5.56 (16:20) 0 0 0 0 0
09-11-2020 22 (17:10) 14.3 (00:00) 18.2 5.83 (19:00) 4.44 (19:50) 5.4 5.2 0.2 0 0
08-11-2020 21.9 (13:50) 13.5 (00:00) 17.7 8.61 (15:00) 6.39 (12:30) 0.2 0 0 0 0.2
07-11-2020 21.3 (15:30) 12.4 (00:00) 16.8 8.06 (14:40) 5.28 (14:50) 2 1.8 0.2 0 0
06-11-2020 21.5 (12:30) 14.4 (00:00) 17.9 17.78 (15:30) 10 (15:30) 12 0.2 0 0 11.8
05-11-2020 21.6 (15:00) 13.8 (00:00) 17.7 13.33 (11:20) 9.17 (11:20) 44.6 39.6 5 0 0
04-11-2020 19 (17:00) 13 (00:00) 16 8.89 (22:20) 6.39 (19:40) 33.6 0 0 0 33.6
03-11-2020 20.8 (18:00) 16.5 (00:00) 18.6 7.22 (10:20) 3.89 (14:50) 0 0 0 0 0
02-11-2020 29 (16:10) 14.1 (00:00) 21.6 10 (18:20) 5 (18:20) 0 0 0 0 0
01-11-2020 26.8 (15:20) 14.1 (00:00) 20.4 7.5 (21:40) 3.33 (17:00) 0 0 0 0 0
31-10-2020 26.8 (15:00) 11.8 (00:00) 19.3 6.94 (22:40) 4.44 (17:10) 0 0 0 0 0
30-10-2020 28 (17:10) 12.4 (00:00) 20.2 5 (10:30) 2.78 (10:40) 0 0 0 0 0
29-10-2020 27 (16:10) 13.2 (00:00) 20.1 8.06 (13:50) 4.72 (13:50) 0 0 0 0 0
28-10-2020 24.2 (16:40) 9.8 (00:00) 17 6.39 (01:40) 4.17 (01:30) 0 0 0 0 0
27-10-2020 21.4 (16:40) 8.5 (00:00) 14.9 9.17 (14:30) 5.28 (16:10) 0 0 0 0 0

Gráficas

Temp. máximas Temp. mínimas Temp. medias Precipitaciones Rachas de viento máximas Velocidades máximas media en intervalos de 10 minutos

Datos horarios

Fecha y hora oficial Temperatura (ºC) Velocidad del viento (km/h) Dirección del viento Racha (km/h) Dirección de racha Precipitación (mm) Presión (hPa) Tendencia (hPa) Humedad (%)
2020-11-25 23:00:00 12.1 9 Nordeste 25 Este 0 1005.8 -0.4 97
2020-11-25 22:00:00 12.4 10 Noroeste 14 Noroeste 2.8 1006.9 0.4 97
2020-11-25 21:00:00 12.3 3 Sur 29 Noroeste 7.6 1007.3 0.3 95
2020-11-25 20:00:00 13.7 16 Oeste 35 Sur 4.4 1006.2 -1 93
2020-11-25 19:00:00 14.7 16 Sudeste 25 Sudeste 0 1006.5 -0.5 95
2020-11-25 18:00:00 15 10 Sudeste 26 Sur 0 1007 -0.7 90
2020-11-25 17:00:00 16 18 Sur 26 Sur 0 1007.2 -1.4 89
2020-11-25 16:00:00 15.7 14 Sur 22 Sur 0 1007 -3 89
2020-11-25 15:00:00 15.4 18 Sur 31 Sur 1.6 1007.7 -- 93
2020-11-25 14:00:00 15.2 17 Sur 27 Sur 0.4 1008.6 -- 93
2020-11-25 13:00:00 14.8 12 Sudeste -- -- -- 1010 -- 97
2020-11-25 12:00:00 13.6 6 Sudeste 14 Sur 2.2 1011.1 -- 98
2020-11-25 11:00:00 12.7 6 Sur 43 Noroeste 11 1012.6 -- 97
2020-11-25 10:00:00 13.6 4 Sudoeste 14 Este 1 1012.2 -- 91
2020-11-25 09:00:00 12.1 6 Nordeste 13 Este 0 1012 -- 95
2020-11-25 08:00:00 10.6 9 Nordeste 14 Nordeste 0.2 1012.7 -- 96
2020-11-25 07:00:00 9.8 11 Nordeste 15 Este 0 1013.2 -- 95
2020-11-25 06:00:00 9.9 6 Nordeste 13 Nordeste 0 1013.7 -- 95
2020-11-25 05:00:00 9.7 9 Nordeste 17 Este 0 1014.4 -- 94
2020-11-25 04:00:00 10 8 Nordeste 10 Nordeste 0 1015.4 -- 94
2020-11-25 03:00:00 10.1 6 Nordeste 9 Nordeste 0 1015.8 -- 94
2020-11-25 02:00:00 10.6 4 Nordeste 6 Nordeste 0 1016.5 -- 94
2020-11-25 01:00:00 11 3 Este 14 Noroeste 0 1017.2 -- 90
2020-11-25 00:00:00 12.5 11 Noroeste 14 Noroeste 0 1017.5 -- 89
2020-11-24 23:00:00 12.6 11 Noroeste 17 Noroeste 0 1017.9 -- 88
2020-11-24 22:00:00 12.6 0 Calma 9 Nordeste 0 1018 -- 83
2020-11-24 21:00:00 13.7 5 Norte 10 Nordeste 0 1017.8 -- 78
2020-11-24 20:00:00 15.1 7 Nordeste 13 Norte 0 1017.7 -- 76
2020-11-24 19:00:00 16.4 4 Norte 10 Sudeste 0 1017.8 -- 75
2020-11-24 18:00:00 17.3 4 Este 18 Sudeste 0 1017.8 -- 72
2020-11-24 17:00:00 17.8 14 Sudeste 21 Sudeste 0 1017.6 -- 73
2020-11-24 16:00:00 17.5 6 Este 17 Este 0 1018.1 -- 70
2020-11-24 15:00:00 17.3 9 Este 16 Este 0 1018.7 -- 68
2020-11-24 14:00:00 17.1 8 Sudeste 14 Sur 0 1019.6 -- 67
2020-11-24 13:00:00 16.3 9 Este 18 Este 0 1020.7 -- 66
2020-11-24 12:00:00 15 9 Nordeste 21 Nordeste 0 1021.8 -- 69
2020-11-24 11:00:00 13.1 9 Nordeste 19 Nordeste 0 1022.1 -- 75
2020-11-24 10:00:00 10.4 8 Nordeste 16 Este 0 1022.2 -- 83
2020-11-24 09:00:00 8.6 8 Nordeste 13 Nordeste 0 1022 -- 86
2020-11-24 08:00:00 7.6 8 Nordeste 13 Nordeste 0 1021.7 -- 88
2020-11-24 07:00:00 7.7 5 Nordeste 11 Nordeste 0 1021.3 -- 87
2020-11-24 06:00:00 8.1 6 Nordeste 13 Nordeste 0 1021.3 -- 86
2020-11-24 05:00:00 8 5 Norte 12 Nordeste 0 1021.4 -- 87
2020-11-24 04:00:00 8.2 7 Nordeste 12 Nordeste 0 1021.5 -- 87
2020-11-24 03:00:00 9 9 Nordeste 13 Nordeste 0 1021.9 -- 85
2020-11-24 02:00:00 9.4 9 Nordeste 12 Nordeste 0 1022.3 -- 84
2020-11-24 01:00:00 10.5 6 Nordeste 12 Nordeste 0 1022.9 -- 78
2020-11-24 00:00:00 11.2 8 Norte 12 Nordeste 0 1022.8 -- 75
2020-11-23 23:00:00 11.5 6 Nordeste 9 Sudeste 0 1022.9 -- 76
2020-11-23 22:00:00 12.6 7 Nordeste 10 Nordeste 0 1022.8 -- 70
2020-11-23 21:00:00 13.5 5 Nordeste 7 Nordeste 0 1022.8 -- 66
2020-11-23 20:00:00 14.4 4 Nordeste 6 Nordeste 0 1022.7 -- 64
2020-11-23 19:00:00 15.9 6 Nordeste 7 Nordeste 0 1022.4 -- 58
2020-11-23 18:00:00 18 5 Nordeste 10 Nordeste 0 1022.2 -- 54
2020-11-23 17:00:00 19.3 6 Nordeste 14 Nordeste 0 1022.2 -- 46
2020-11-23 16:00:00 19.5 8 Este 13 Este 0 1022.1 -- 45
2020-11-23 15:00:00 19.2 6 Este 14 Este 0 1022.5 -- 44
2020-11-23 14:00:00 18.4 9 Este 21 Este 0 1023.2 -- 50
2020-11-23 13:00:00 17.3 10 Este 17 Este 0 1024.1 -- 53
2020-11-23 12:00:00 15.6 10 Este 18 Este 0 1025 -- 65
2020-11-23 11:00:00 13.6 9 Nordeste 15 Nordeste 0 1025.1 -- 72
2020-11-23 10:00:00 11 6 Nordeste 10 Este 0 1024.9 -- 81
2020-11-23 09:00:00 8.7 5 Norte 10 Norte 0 1024.3 -- 86
2020-11-23 08:00:00 7.9 6 Nordeste 12 Norte 0 1023.7 -- 86
2020-11-23 07:00:00 7.9 6 Nordeste 11 Nordeste 0 1023.3 -- 86
2020-11-23 06:00:00 7.8 5 Nordeste 8 Nordeste 0 1023.3 -- 86
2020-11-23 05:00:00 7.8 4 Nordeste 9 Nordeste 0 1023.3 -- 85
2020-11-23 04:00:00 8.5 3 Nordeste 8 Nordeste 0 1023.6 -- 82
2020-11-23 03:00:00 9.7 5 Nordeste 10 Norte 0 1023.7 -- 78
2020-11-23 02:00:00 10.2 6 Norte 13 Nordeste 0 1023.8 -- 76
2020-11-23 01:00:00 10.9 9 Norte 13 Nordeste 0 1023.8 -- 74
2020-11-23 00:00:00 12.1 6 Norte 10 Norte 0 1023.9 -- 73
2020-11-22 23:00:00 12 3 Este 15 Sudeste 0 1023.9 -- 77
2020-11-22 22:00:00 13.1 5 Nordeste 9 Nordeste 0 1023.7 -- 66
2020-11-22 21:00:00 13.8 5 Nordeste 9 Nordeste 0 1023.5 -- 66
2020-11-22 20:00:00 15 7 Nordeste 12 Nordeste 0 1023 -- 64
2020-11-22 19:00:00 16.6 5 Nordeste 10 Este 0 1022.6 -- 62
2020-11-22 18:00:00 18.8 5 Nordeste 19 Nordeste 0 1022.2 -- 57
2020-11-22 17:00:00 20 10 Este 22 Este 0 1022.1 -- 52
2020-11-22 16:00:00 20.1 10 Este 26 Este 0 1022.3 -- 50
2020-11-22 15:00:00 19.7 13 Este 24 Nordeste 0 1022.6 -- 50
2020-11-22 14:00:00 19.1 11 Este 26 Este 0 1023.5 -- 55
2020-11-22 13:00:00 18.3 12 Nordeste 24 Este 0 1024.1 -- 58
2020-11-22 12:00:00 17.2 12 Nordeste 23 Este 0 1024.7 -- 62
2020-11-22 11:00:00 15.6 12 Nordeste 26 Nordeste 0 1024.9 -- 71
2020-11-22 10:00:00 13.5 6 Nordeste 14 Este 0 1024.7 -- 82
2020-11-22 09:00:00 10.9 6 Nordeste 12 Nordeste 0 1024.2 -- 91
2020-11-22 08:00:00 10.1 8 Nordeste 11 Nordeste 0 1023.9 -- 92
2020-11-22 07:00:00 10.3 8 Nordeste 15 Nordeste 0 1023.6 -- 91
2020-11-22 06:00:00 11 10 Nordeste 16 Nordeste 0 1023.2 -- 90
2020-11-22 05:00:00 11 10 Nordeste 15 Nordeste 0 1023 -- 90
2020-11-22 04:00:00 11.2 8 Nordeste 12 Nordeste 0 1023 -- 88
2020-11-22 03:00:00 11.7 7 Nordeste 12 Nordeste 0 1022.7 -- 87
2020-11-22 02:00:00 11.8 8 Nordeste 12 Nordeste 0 1022.7 -- 86
2020-11-22 01:00:00 12.2 8 Nordeste 11 Nordeste 0 1023.1 -- 87
2020-11-22 00:00:00 12.7 6 Nordeste 9 Nordeste 0 1023.1 -- 89
2020-11-21 23:00:00 13.9 5 Nordeste 9 Nordeste 0 1023 -- 83
2020-11-21 22:00:00 15.1 6 Nordeste 9 Nordeste 0 1022.5 -- 80
2020-11-21 21:00:00 16.1 3 Sur 9 Sudeste 0 1022.4 -- 78
2020-11-21 20:00:00 17 2 Sur 14 Sur 0 1022 -- 77
2020-11-21 19:00:00 18 4 Sudoeste 10 Sur 0 1021.7 -- 74
2020-11-21 18:00:00 20.1 8 Sur 16 Sudoeste 0 1021.2 -- 65
2020-11-21 17:00:00 22.5 6 Sur 13 Este 0 1020.9 -- 53
2020-11-21 16:00:00 22.5 8 Sudeste 23 Sudeste 0 1020.7 -- 53
2020-11-21 15:00:00 22.2 6 Sudeste 18 Este 0 1021 -- 53
2020-11-21 14:00:00 21.5 10 Este 20 Este 0 1021.4 -- 55
2020-11-21 13:00:00 20.5 10 Este 19 Este 0 1022 -- 58
2020-11-21 12:00:00 18.9 9 Este 19 Este 0 1022.7 -- 63
2020-11-21 11:00:00 16.6 10 Nordeste 20 Nordeste 0 1022.9 -- 67
2020-11-21 10:00:00 13.3 9 Nordeste 16 Nordeste 0 1022.8 -- 74
2020-11-21 09:00:00 11 6 Nordeste 13 Nordeste 0 1022.3 -- 77
2020-11-21 08:00:00 10.5 7 Norte 12 Norte 0 1021.6 -- 68
2020-11-21 07:00:00 11.1 7 Norte 12 Nordeste 0 1021 -- 63
2020-11-21 06:00:00 10.5 4 Norte 10 Nordeste 0 1020.8 -- 71
2020-11-21 05:00:00 10.2 3 Norte 9 Nordeste 0 1020.9 -- 79
2020-11-21 04:00:00 12 6 Nordeste 9 Nordeste 0 1020.8 -- 72
2020-11-21 03:00:00 11.6 4 Norte 7 Nordeste 0 1020.8 -- 79
2020-11-21 02:00:00 11.8 3 Oeste 12 Nordeste 0 1021.2 -- 85
2020-11-21 01:00:00 13.4 7 Norte 10 Norte 0 1021.4 -- 80
2020-11-21 00:00:00 13.7 2 Noroeste 8 Nordeste 0 1021.6 -- 77
2020-11-20 23:00:00 14.2 6 Este 19 Sudeste 0 1021.7 -- 78
2020-11-20 22:00:00 15.9 5 Norte 8 Nordeste 0 1021.3 -- 70
2020-11-20 21:00:00 16.7 4 Nordeste 6 Nordeste 0 1021.2 -- 64
2020-11-20 20:00:00 17.9 3 Nordeste 9 Nordeste 0 1021.2 -- 61
2020-11-20 19:00:00 19.8 5 Nordeste 12 Nordeste 0 1021.1 -- 54
2020-11-20 18:00:00 22.1 6 Nordeste 17 Este 0 1020.9 -- 51
2020-11-20 17:00:00 23.5 12 Este 25 Este 0 1020.9 -- 44
2020-11-20 16:00:00 23.6 16 Este 31 Este 0 1021 -- 42
2020-11-20 15:00:00 23.3 14 Nordeste 34 Este 0 1021.5 -- 45
2020-11-20 14:00:00 22.7 17 Este 30 Este 0 1022.4 -- 49
2020-11-20 13:00:00 21.3 15 Este 26 Este 0 1023.6 -- 58
2020-11-20 12:00:00 19.4 9 Este 16 Nordeste 0 1024.5 -- 68
2020-11-20 11:00:00 17 6 Nordeste 14 Nordeste 0 1024.6 -- 79
2020-11-20 10:00:00 15.1 6 Nordeste 9 Nordeste 0 1024.6 -- 83
2020-11-20 09:00:00 13.2 5 Nordeste 8 Nordeste 0 1024.1 -- 90
2020-11-20 08:00:00 11.9 6 Nordeste 9 Nordeste 0 1024.2 -- 93
2020-11-20 07:00:00 11.4 5 Nordeste 8 Nordeste 0 1024.1 -- 96
2020-11-20 06:00:00 11.4 2 Norte 8 Nordeste 0 1024 -- 94
2020-11-20 05:00:00 12.2 0 Calma 11 Nordeste 0 1023.9 -- 92
2020-11-20 04:00:00 12.5 7 Nordeste 11 Nordeste 0 1024.3 -- 95
2020-11-20 03:00:00 12.8 4 Nordeste 11 Nordeste 0 1024.6 -- 94
2020-11-20 02:00:00 13.6 4 Nordeste 8 Norte 0 1024.9 -- 93
2020-11-20 01:00:00 14.1 4 Oeste 10 Norte 0 1025.3 -- 92
2020-11-20 00:00:00 14.5 4 Oeste 7 Nordeste 0 1025.3 -- 91
2020-11-19 23:00:00 15.3 2 Este 5 Nordeste 0 1025.8 -- 89
2020-11-19 22:00:00 16.2 2 Este 4 Nordeste 0 1025.7 -- 86
2020-11-19 21:00:00 16.9 0 Calma 5 Oeste 0 1025.4 -- 85
2020-11-19 20:00:00 18.5 2 Noroeste 6 Noroeste 0 1025 -- 75
2020-11-19 19:00:00 19.4 6 Sudoeste 9 Sudoeste 0 1024.1 -- 73
2020-11-19 18:00:00 22 5 Sudoeste 17 Noroeste 0 1024.2 -- 65
2020-11-19 17:00:00 25 7 Sudoeste 20 Este 0 1023.8 -- 49
2020-11-19 16:00:00 25.2 12 Este 23 Este 0 1023.8 -- 39
2020-11-19 15:00:00 24.8 11 Este 29 Este 0 1023.9 -- 40
2020-11-19 14:00:00 24 16 Este 27 Este 0 1024.1 -- 44
2020-11-19 13:00:00 23.1 16 Este 27 Este 0 1024.9 -- 47
2020-11-19 12:00:00 20.1 10 Este 17 Nordeste 0 1025.3 -- 67
2020-11-19 11:00:00 17.6 8 Nordeste 13 Este 0 1025.4 -- 78
2020-11-19 10:00:00 15.1 4 Nordeste 8 Nordeste 0 1025.4 -- 89
2020-11-19 09:00:00 13 4 Nordeste 8 Nordeste 0 1024.3 -- 95
2020-11-19 08:00:00 12.6 6 Norte 10 Norte 0 1023.8 -- 96
2020-11-19 07:00:00 12.3 4 Nordeste 11 Nordeste 0 1023.3 -- 95
2020-11-19 06:00:00 12.3 8 Nordeste 11 Nordeste 0 1022.8 -- 96
2020-11-19 05:00:00 13 7 Nordeste 10 Nordeste 0 1022.9 -- 95
2020-11-19 04:00:00 13.3 5 Nordeste 9 Nordeste 0 1022.8 -- 95
2020-11-19 03:00:00 13.5 6 Nordeste 10 Nordeste 0 1022.5 -- 95
2020-11-19 02:00:00 14.4 5 Nordeste 11 Nordeste 0 1022.6 -- 95
2020-11-19 01:00:00 14.8 8 Nordeste 12 Este 0 1022.7 -- 96
2020-11-19 00:00:00 15.1 5 Nordeste 7 Nordeste 0 1023.1 -- 96
2020-11-18 23:00:00 15.6 4 Nordeste 6 Nordeste 0 1022.9 -- 94
2020-11-18 22:00:00 16.7 4 Nordeste 9 Noroeste 0 1022.7 -- 89
2020-11-18 21:00:00 16.9 3 Noroeste 6 Noroeste 0 1022.7 -- 89
2020-11-18 20:00:00 17.7 4 Nordeste 6 Este 0 1022.2 -- 85
2020-11-18 19:00:00 18.8 4 Sudoeste 13 Oeste 0 1022.3 -- 80
2020-11-18 18:00:00 20.1 9 Oeste 16 Oeste 0 1022.1 -- 76
2020-11-18 17:00:00 21.6 10 Sudoeste 14 Sudoeste 0 1022 -- 71
2020-11-18 16:00:00 22.9 10 Sudoeste 15 Sudoeste 0 1021.9 -- 68
2020-11-18 15:00:00 23.7 9 Sudoeste 13 Sudoeste 0 1022 -- 67
2020-11-18 14:00:00 23.3 6 Sur 12 Sur 0 1022.6 -- 66
2020-11-18 13:00:00 22.2 4 Este 10 Este 0 1023.5 -- 67
2020-11-18 12:00:00 20.5 3 Este 6 Sudeste 0 1024.1 -- 76
2020-11-18 11:00:00 18.6 3 Nordeste 7 Este 0 1024.3 -- 82
2020-11-18 10:00:00 16.2 5 Este 10 Este 0 1024.1 -- 91
2020-11-18 09:00:00 13.9 6 Nordeste 12 Nordeste 0 1023.6 -- 97
2020-11-18 08:00:00 13.5 6 Nordeste 12 Nordeste 0 1023.3 -- 97
2020-11-18 07:00:00 13.4 6 Nordeste 11 Nordeste 0 1023.1 -- 97
2020-11-18 06:00:00 13.3 8 Nordeste 10 Nordeste 0 1022.7 -- 96
2020-11-18 05:00:00 13.5 6 Nordeste 9 Nordeste 0 1022.7 -- 96
2020-11-18 04:00:00 13.8 5 Nordeste 9 Nordeste 0 1023 -- 96
2020-11-18 03:00:00 14.2 6 Nordeste 10 Nordeste 0 1023.1 -- 97
2020-11-18 02:00:00 14.6 7 Nordeste 12 Nordeste 0 1023.4 -- 97
2020-11-18 01:00:00 15.1 7 Nordeste 9 Nordeste 0 1023.6 -- 96
2020-11-18 00:00:00 15.5 4 Nordeste 6 Nordeste 0 1023.9 -- 95
2020-11-17 23:00:00 16.1 4 Nordeste 6 Nordeste 0 1024 -- 94
2020-11-17 22:00:00 16 4 Norte 5 Nordeste 0 1023.7 -- 94
2020-11-17 21:00:00 16.5 5 Nordeste 7 Nordeste 0 1023.6 -- 91
2020-11-17 20:00:00 17.4 2 Nordeste 9 Noroeste 0 1023.4 -- 86
2020-11-17 19:00:00 18.3 5 Noroeste 8 Sudoeste 0 1023.1 -- 85
2020-11-17 18:00:00 20.3 6 Sudoeste 11 Sudoeste 0 1022.9 -- 75
2020-11-17 17:00:00 21.7 7 Sudoeste 12 Sudoeste 0 1023 -- 72
2020-11-17 16:00:00 21.7 7 Sur 14 Sur 0 1023 -- 74
2020-11-17 15:00:00 21.6 9 Sudoeste 14 Sur 0 1023.3 -- 76
2020-11-17 14:00:00 21.4 7 Sur 14 Sudeste 0 1023.4 -- 79
2020-11-17 13:00:00 19.9 8 Sudeste 13 Este 0 1024.1 -- 87
2020-11-17 12:00:00 17.4 6 Este 13 Este 0 1024.6 -- 100
2020-11-17 11:00:00 16.3 5 Este 9 Este 0 1024.7 -- 100
2020-11-17 10:00:00 15.4 5 Nordeste 11 Nordeste 0 1024.4 -- 100
2020-11-17 09:00:00 15.2 6 Nordeste 10 Nordeste 0.2 1023.5 -- 100
2020-11-17 08:00:00 15.5 3 Este 8 Este 0 1022.8 -- 100
2020-11-17 07:00:00 15.3 6 Este 10 Este 0 1022.7 -- 100
2020-11-17 06:00:00 15.5 4 Este 7 Este 0 1022.4 -- 100
2020-11-17 05:00:00 15.4 3 Este 8 Este 0 1022.3 -- 100
2020-11-17 04:00:00 15.4 5 Nordeste 8 Este 0 1022.4 -- 100
2020-11-17 03:00:00 15.7 3 Este 6 Nordeste 0.2 1022.5 -- 100
2020-11-17 02:00:00 15.9 4 Nordeste 7 Nordeste 0 1022.7 -- 100
2020-11-17 01:00:00 16.2 3 Sur 6 Sur 0 1022.8 -- 100
2020-11-17 00:00:00 16.5 4 Sur 9 Sudoeste 0 1022.7 -- 100
2020-11-16 23:00:00 16.4 3 Sudeste 5 Sudeste 0 1022.8 -- 100
2020-11-16 22:00:00 16.6 3 Sudeste 8 Sur 0 1022.7 -- 99
2020-11-16 21:00:00 16.7 4 Sur 10 Sudoeste 0 1022.2 -- 99
2020-11-16 20:00:00 16.7 6 Sur 12 Sur 0 1021.9 -- 99
2020-11-16 19:00:00 16.9 6 Sur 12 Sur 0 1021.6 -- 97
2020-11-16 18:00:00 18.8 10 Sur 13 Sur 0 1021.1 -- 89
2020-11-16 17:00:00 20.2 9 Sur 21 Sur 0 1020.8 -- 85
2020-11-16 16:00:00 21 15 Sur 20 Sur 0 1020.9 -- 82
2020-11-16 15:00:00 22.8 9 Sur 17 Sur 0 1021 -- 72
2020-11-16 14:00:00 22.3 5 Sur 9 Sur 0 1021.7 -- 73
2020-11-16 13:00:00 20.2 4 Noroeste 9 Norte 0 1022.4 -- 84
2020-11-16 12:00:00 18 5 Norte 17 Nordeste 0 1022.7 -- 94
2020-11-16 11:00:00 16.2 9 Norte 15 Norte 0 1022.6 -- 100
2020-11-16 10:00:00 15.3 7 Norte 17 Noroeste 0 1022.3 -- 99
2020-11-16 09:00:00 15.1 8 Norte 15 Norte 0 1021.5 -- 98
2020-11-16 08:00:00 13.9 8 Norte 15 Norte 0 1021 -- 95
2020-11-16 07:00:00 15.1 4 Norte 14 Norte 0 1020.2 -- 93
2020-11-16 06:00:00 15.4 9 Norte 12 Norte 0 1019.8 -- 94
2020-11-16 05:00:00 15.2 0 Calma 9 Noroeste 0 1019.7 -- 94
2020-11-16 04:00:00 15.7 6 Norte 14 Norte 0 1020.4 -- 93
2020-11-16 03:00:00 16 6 Noroeste 12 Norte 0 1020.4 -- 96
2020-11-16 02:00:00 16.6 4 Norte 11 Norte 0 1020.3 -- 93
2020-11-16 01:00:00 16.3 6 Nordeste 9 Nordeste 0 1020.2 -- 94
2020-11-16 00:00:00 16.9 5 Nordeste 7 Norte 0 1020.1 -- 94
2020-11-15 23:00:00 17.5 2 Este 4 Nordeste 0 1020 -- 92
2020-11-15 22:00:00 18 2 Sudoeste 6 Sur 0 1019.7 -- 90
2020-11-15 21:00:00 18.3 2 Sudoeste 8 Sudeste 0 1019.2 -- 87
2020-11-15 20:00:00 19.1 4 Este 8 Este 0 1019.1 -- 81
2020-11-15 19:00:00 20.4 6 Sudoeste 10 Sur 0 1018.8 -- 73
2020-11-15 18:00:00 21.7 9 Sur 21 Sur 0 1018.4 -- 66
2020-11-15 17:00:00 23.4 17 Sur 28 Sur 0 1018.3 -- 59
2020-11-15 16:00:00 24.2 17 Sur 24 Sur 0 1018.1 -- 57
2020-11-15 15:00:00 24.9 19 Sur 24 Sur 0 1018.2 -- 57
2020-11-15 14:00:00 24.4 10 Sur 18 Sudeste 0 1018.8 -- 61
2020-11-15 13:00:00 22.8 9 Sudeste 17 Este 0 1019.3 -- 73
2020-11-15 12:00:00 20.8 11 Este 17 Este 0 1019.9 -- 82
2020-11-15 11:00:00 19.1 8 Este 14 Este 0 1020.1 -- 91
2020-11-15 10:00:00 18 3 Este 13 Este 0 1019.8 -- 98
2020-11-15 09:00:00 17.6 7 Este 18 Este 0 1019.3 -- 98
2020-11-15 08:00:00 17.5 10 Este 17 Este 0 1018.8 -- 99
2020-11-15 07:00:00 17.2 5 Este 10 Este 0 1018.8 -- 99
2020-11-15 06:00:00 17.1 6 Nordeste 12 Este 0 1018.7 -- 99
2020-11-15 05:00:00 17.6 6 Este 12 Este 0 1018.4 -- 99
2020-11-15 04:00:00 17.9 7 Este 11 Este 0 1018.8 -- 100
2020-11-15 03:00:00 18 4 Este 12 Este 0 1019 -- 100
2020-11-15 02:00:00 17.9 5 Este 14 Sudeste 0 1018.8 -- 100
2020-11-15 01:00:00 17.4 8 Sudeste 11 Sudeste 0 1019.3 -- 99
2020-11-15 00:00:00 17.3 4 Este 8 Este 0 1019.8 -- 99
2020-11-14 23:00:00 17.3 3 Nordeste 5 Nordeste 0 1020 -- 98
2020-11-14 22:00:00 17.7 2 Sudeste 5 Este 0 1019.8 -- 98
2020-11-14 21:00:00 18.3 3 Este 8 Sur 0 1019.5 -- 97
2020-11-14 20:00:00 18.7 5 Sudoeste 10 Sudoeste 0 1019.3 -- 96
2020-11-14 19:00:00 19.1 6 Sudoeste 14 Sur 0 1018.8 -- 96
2020-11-14 18:00:00 19.4 9 Sudoeste 16 Sudoeste 0.6 1018.4 -- 95
2020-11-14 17:00:00 19.7 11 Sur 17 Sudoeste 0 1018.1 -- 92
2020-11-14 16:00:00 20.1 12 Sudoeste 19 Sur 0 1017.7 -- 87
2020-11-14 15:00:00 21.1 11 Sudoeste 20 Sur 0 1017.6 -- 86
2020-11-14 14:00:00 19.8 13 Sudoeste 26 Sur 0 1018.1 -- 92
2020-11-14 13:00:00 19.4 15 Sur 27 Sur 0.6 1018.5 -- 94
2020-11-14 12:00:00 18.8 14 Sur 21 Sur 0 1018.8 -- 95
2020-11-14 11:00:00 18.7 12 Sur 21 Sur 0 1018.6 -- 94
2020-11-14 10:00:00 18.1 5 Sur 8 Sur 0.2 1018.1 -- 98
2020-11-14 09:00:00 16.7 5 Este 9 Nordeste 1 1017.6 -- 98
2020-11-14 08:00:00 16.2 5 Este 9 Sudeste 1.6 1017.1 -- 97
2020-11-14 07:00:00 16.2 4 Sudeste 9 Sudeste 0.8 1016.8 -- 95
2020-11-14 06:00:00 16.5 2 Oeste 17 Sur 1.2 1016.6 -- 96
2020-11-14 05:00:00 16.6 14 Sur 25 Oeste 1.4 1015.9 -- 93
2020-11-14 04:00:00 17.4 17 Oeste 30 Sudoeste 0.2 1016.7 -- 94
2020-11-14 03:00:00 18.3 14 Sudeste 27 Sur 5.6 1016.2 -- 97
2020-11-14 02:00:00 18.4 13 Sudeste 20 Sudeste 0 1016.8 -- 97
2020-11-14 01:00:00 18 8 Sudeste 12 Sudeste 0 1017.2 -- 96
2020-11-14 00:00:00 17.9 5 Sudeste 10 Sudeste 0 1017.6 -- 96
2020-11-13 23:00:00 17.9 7 Sudeste 10 Sudeste 0 1017.5 -- 95
2020-11-13 22:00:00 18.3 5 Sur 10 Sur 0 1017.3 -- 93
2020-11-13 21:00:00 18.4 6 Sur 13 Sur 0 1017.1 -- 92
2020-11-13 20:00:00 18.8 12 Sur 24 Sur 0 1016.7 -- 88
2020-11-13 19:00:00 18.9 10 Sur 17 Sur 0 1016.5 -- 83
2020-11-13 18:00:00 19.3 13 Sur 20 Sur 0 1016.1 -- 78
2020-11-13 17:00:00 20.2 13 Sur 23 Sur 0 1016.1 -- 78
2020-11-13 16:00:00 20.7 19 Sur 30 Sur 0 1016 -- 73
2020-11-13 15:00:00 21.7 23 Sur 30 Sudeste 0 1016.2 -- 71
2020-11-13 14:00:00 21.3 13 Sudeste 25 Sudeste 0 1016.6 -- 71
2020-11-13 13:00:00 20 12 Sudeste 26 Sudeste 0 1017.3 -- 75
2020-11-13 12:00:00 20 15 Sudeste 24 Sudeste 0 1017.7 -- 74
2020-11-13 11:00:00 18 9 Este 17 Este 0 1017.8 -- 77
2020-11-13 10:00:00 15.3 9 Este 16 Este 0 1017.6 -- 85
2020-11-13 09:00:00 14 7 Nordeste 15 Este 0 1017 -- 88
2020-11-13 08:00:00 13.2 8 Nordeste 17 Nordeste 0 1016.4 -- 89
2020-11-13 07:00:00 13 8 Nordeste 16 Nordeste 0 1016 -- 88
2020-11-13 06:00:00 12.9 8 Nordeste 15 Nordeste 0 1015.8 -- 91
2020-11-13 05:00:00 12.1 6 Nordeste 11 Este 0 1015.8 -- 92
2020-11-13 04:00:00 11.9 6 Nordeste 12 Este 0 1016.1 -- 91
2020-11-13 03:00:00 11.9 8 Nordeste 11 Nordeste 0 1016.2 -- 90
2020-11-13 02:00:00 12.3 6 Nordeste 12 Nordeste 0 1016.1 -- 91
2020-11-13 01:00:00 13.4 7 Nordeste 12 Norte 0 1016.5 -- 85
2020-11-13 00:00:00 14.2 8 Nordeste 10 Nordeste 0 1016.8 -- 83
2020-11-12 23:00:00 14.2 2 Nordeste 8 Oeste 0 1016.8 -- 85
2020-11-12 22:00:00 15.3 4 Norte 9 Nordeste 0 1016.3 -- 79
2020-11-12 21:00:00 16.2 5 Nordeste 8 Nordeste 0 1015.9 -- 76
2020-11-12 20:00:00 16.9 6 Nordeste 10 Nordeste 0 1015.8 -- 73
2020-11-12 19:00:00 18.2 7 Nordeste 11 Este 0 1015.6 -- 68
2020-11-12 18:00:00 20.7 6 Nordeste 15 Este 0 1015.2 -- 59
2020-11-12 17:00:00 22 9 Este 17 Este 0 1015.2 -- 53
2020-11-12 16:00:00 22.6 5 Sudeste 15 Sudeste 0 1015.4 -- 50
2020-11-12 15:00:00 21.9 9 Sudeste 21 Este 0 1015.5 -- 52
2020-11-12 14:00:00 22 12 Este 21 Nordeste 0 1015.9 -- 50
2020-11-12 13:00:00 20.6 11 Este 22 Nordeste 0 1016.9 -- 61
2020-11-12 12:00:00 19.2 12 Nordeste 24 Este 0 1017.7 -- 65
2020-11-12 11:00:00 17.5 14 Este 23 Este 0 1018.1 -- 72
2020-11-12 10:00:00 15.3 12 Este 20 Este 0 1018 -- 82
2020-11-12 09:00:00 13 6 Nordeste 12 Nordeste 0 1018 -- 90
2020-11-12 08:00:00 12.8 6 Nordeste 14 Nordeste 0 1017.7 -- 88
2020-11-12 07:00:00 12.3 5 Nordeste 13 Nordeste 0 1017.6 -- 90
2020-11-12 06:00:00 12.6 6 Nordeste 11 Nordeste 0 1017.6 -- 89
2020-11-12 05:00:00 12.8 6 Nordeste 13 Nordeste 0 1017.8 -- 90
2020-11-12 04:00:00 13.1 4 Nordeste 16 Nordeste 0 1018.4 -- 89
2020-11-12 03:00:00 13.1 9 Nordeste 14 Nordeste 0 1018.6 -- 89
2020-11-12 02:00:00 13.5 6 Nordeste 13 Nordeste 0 1019.3 -- 88
2020-11-12 01:00:00 14.2 9 Nordeste 13 Nordeste 0 1019.6 -- 85
2020-11-12 00:00:00 14.3 7 Nordeste 12 Nordeste 0 1019.5 -- 85
2020-11-11 23:00:00 14.4 5 Nordeste 10 Este 0 1019.2 -- 85
2020-11-11 22:00:00 15.4 5 Nordeste 9 Nordeste 0 1019.2 -- 79
2020-11-11 21:00:00 16.4 4 Nordeste 12 Nordeste 0 1019.3 -- 76
2020-11-11 20:00:00 17.3 6 Nordeste 9 Nordeste 0 1018.9 -- 74
2020-11-11 19:00:00 18.1 4 Nordeste 8 Este 0 1018.8 -- 71
2020-11-11 18:00:00 19.8 5 Nordeste 16 Este 0 1018.6 -- 64
2020-11-11 17:00:00 21.4 9 Este 18 Este 0 1018.3 -- 56
2020-11-11 16:00:00 21.2 11 Este 20 Este 0 1018.3 -- 53
2020-11-11 15:00:00 21.4 9 Nordeste 21 Este 0 1018.7 -- 57
2020-11-11 14:00:00 21.7 10 Este 24 Este 0 1019.1 -- 55
2020-11-11 13:00:00 20.4 11 Nordeste 21 Nordeste 0 1019.6 -- 62
2020-11-11 12:00:00 19.2 12 Nordeste 21 Este 0 1020.6 -- 66
2020-11-11 11:00:00 17.5 11 Este 18 Este 0 1020.7 -- 76
2020-11-11 10:00:00 15.1 9 Nordeste 14 Nordeste 0 1020.9 -- 83
2020-11-11 09:00:00 12.9 8 Nordeste 12 Nordeste 0 1020.9 -- 88
2020-11-11 08:00:00 12.1 5 Nordeste 18 Nordeste 0 1020.4 -- 90
2020-11-11 07:00:00 11.8 13 Nordeste 17 Nordeste 0 1020.2 -- 90
2020-11-11 06:00:00 11.8 6 Nordeste 10 Nordeste 0 1020.3 -- 90
2020-11-11 05:00:00 11.3 6 Nordeste 12 Nordeste 0 1020.3 -- 91
2020-11-11 04:00:00 12.2 8 Nordeste 12 Nordeste 0 1021 -- 88
2020-11-11 03:00:00 12.6 8 Nordeste 11 Norte 0 1021.2 -- 86
2020-11-11 02:00:00 12.7 5 Norte 12 Nordeste 0 1021.5 -- 88
2020-11-11 01:00:00 13.3 6 Nordeste 10 Norte 0 1021.7 -- 86
2020-11-11 00:00:00 14.2 7 Norte 13 Norte 0 1021.9 -- 82
2020-11-10 23:00:00 14 6 Nordeste 12 Nordeste 0 1022 -- 86
2020-11-10 22:00:00 15 7 Nordeste 9 Nordeste 0 1021.8 -- 82
2020-11-10 21:00:00 16.2 5 Nordeste 8 Nordeste 0 1021.5 -- 77
2020-11-10 20:00:00 17.3 5 Nordeste 8 Este 0 1021.5 -- 69
2020-11-10 19:00:00 18.4 4 Este 9 Este 0 1021.1 -- 65
2020-11-10 18:00:00 20.4 6 Este 22 Este 0 1021 -- 59
2020-11-10 17:00:00 21.6 15 Este 31 Este 0 1021.1 -- 52
2020-11-10 16:00:00 21.9 15 Este 28 Nordeste 0 1021 -- 51
2020-11-10 15:00:00 21.7 14 Este 24 Este 0 1021.1 -- 53
2020-11-10 14:00:00 21.1 11 Este 23 Este 0 1022 -- 57
2020-11-10 13:00:00 20.4 13 Este 23 Este 0 1022.9 -- 57
2020-11-10 12:00:00 18.9 11 Este 21 Nordeste 0 1023.4 -- 67
2020-11-10 11:00:00 16.9 7 Norte 14 Norte 0 1023.4 -- 76
2020-11-10 10:00:00 14.8 7 Norte 18 Norte 0 1023.5 -- 82
2020-11-10 09:00:00 13.1 12 Norte 20 Noroeste 0 1023.3 -- 87
2020-11-10 08:00:00 12.5 9 Noroeste 18 Noroeste 0 1022.8 -- 87
2020-11-10 07:00:00 12.6 12 Noroeste 17 Norte 0 1022.3 -- 89
2020-11-10 06:00:00 12.9 12 Noroeste 18 Noroeste 0 1022.1 -- 88
2020-11-10 05:00:00 12.9 10 Norte 18 Noroeste 0 1021.9 -- 91
2020-11-10 04:00:00 13 11 Norte 21 Norte 0 1021.9 -- 91
2020-11-10 03:00:00 13.3 12 Norte 21 Norte 0 1022 -- 90
2020-11-10 02:00:00 13.6 10 Norte 16 Norte 0 1022.2 -- 90
2020-11-10 01:00:00 13.8 6 Noroeste 17 Oeste 0 1022.2 -- 89
2020-11-10 00:00:00 14.4 12 Noroeste 16 Noroeste 0 1022.3 -- 89
2020-11-09 23:00:00 14.8 10 Noroeste 14 Noroeste 0 1022.4 -- 92
2020-11-09 22:00:00 15.5 10 Noroeste 19 Noroeste 0 1022.4 -- 90
2020-11-09 21:00:00 16.5 13 Oeste 20 Oeste 0 1022 -- 84
2020-11-09 20:00:00 17 15 Oeste 21 Oeste 0 1021.8 -- 84
2020-11-09 19:00:00 17.8 15 Oeste 21 Oeste 0 1021.3 -- 82
2020-11-09 18:00:00 19.8 11 Sudoeste 15 Sudoeste 0 1020.8 -- 72
2020-11-09 17:00:00 21.9 4 Oeste 13 Noroeste 0 1020.4 -- 54
2020-11-09 16:00:00 21.3 9 Noroeste 15 Oeste 0 1020.3 -- 58
2020-11-09 15:00:00 21 5 Norte 13 Norte 0 1020.4 -- 62
2020-11-09 14:00:00 20.7 5 Norte 14 Noroeste 0 1020.7 -- 62
2020-11-09 13:00:00 20 10 Noroeste 18 Nordeste 0 1021.3 -- 69
2020-11-09 12:00:00 18.9 7 Norte 15 Norte 0 1021.8 -- 78
2020-11-09 11:00:00 17.7 7 Norte 14 Norte 0 1021.9 -- 84
2020-11-09 10:00:00 16.3 6 Norte 12 Norte 0 1021.5 -- 90
2020-11-09 09:00:00 14.9 3 Norte 14 Norte 0 1021 -- 94
2020-11-09 08:00:00 14.5 6 Noroeste 14 Norte 0.2 1020 -- 96
2020-11-09 07:00:00 14.9 8 Noroeste 12 Noroeste 0 1019.5 -- 97
2020-11-09 06:00:00 15.7 6 Noroeste 13 Norte 0 1019 -- 97
2020-11-09 05:00:00 16.4 4 Noroeste 12 Norte 0 1018.6 -- 97
2020-11-09 04:00:00 16.7 5 Noroeste 12 Sur 0.2 1018.5 -- 97
2020-11-09 03:00:00 17 7 Sur 13 Sudeste 2.8 1018.4 -- 97
2020-11-09 02:00:00 17.1 3 Este 5 Nordeste 2.2 1018.5 -- 96
2020-11-09 01:00:00 17.1 3 Este 6 Sur 0 1018.8 -- 95
2020-11-09 00:00:00 17 3 Sur 8 Sudeste 0 1019.1 -- 93
2020-11-08 23:00:00 17.1 6 Sudeste 28 Oeste 0.2 1019 -- 92
2020-11-08 22:00:00 17.8 19 Oeste 27 Sudoeste 0 1019.1 -- 90
2020-11-08 21:00:00 17.8 7 Sur 12 Sur 0 1018.8 -- 87
2020-11-08 20:00:00 17.7 7 Sur 11 Sur 0 1018.7 -- 87
2020-11-08 19:00:00 18.1 9 Sur 18 Sur 0 1018.5 -- 83
2020-11-08 18:00:00 19.4 14 Sur 23 Sur 0 1018.4 -- 76
2020-11-08 17:00:00 20.1 15 Sur 27 Sur 0 1018.3 -- 77
2020-11-08 16:00:00 20.6 17 Sur 28 Sur 0 1018.3 -- 75
2020-11-08 15:00:00 21.2 21 Sur 31 Sur 0 1018.3 -- 70
2020-11-08 14:00:00 21.5 18 Sur 30 Sur 0 1018.7 -- 73
2020-11-08 13:00:00 21.4 19 Sur 31 Sur 0 1019.4 -- 71
2020-11-08 12:00:00 20.8 19 Sur 26 Sur 0 1020.1 -- 76
2020-11-08 11:00:00 18.9 15 Sudeste 23 Sur 0 1020.3 -- 82
2020-11-08 10:00:00 16 8 Nordeste 14 Este 0 1020.3 -- 89
2020-11-08 09:00:00 14.1 8 Nordeste 14 Este 0 1020.1 -- 94
2020-11-08 08:00:00 13.7 7 Nordeste 15 Nordeste 0 1019.7 -- 95
2020-11-08 07:00:00 14.3 6 Nordeste 11 Este 0 1019.4 -- 96
2020-11-08 06:00:00 14.5 5 Este 10 Este 0 1019.4 -- 95
2020-11-08 05:00:00 14.6 4 Nordeste 11 Este 0 1019.3 -- 95
2020-11-08 04:00:00 15.2 6 Este 15 Este 0 1019.5 -- 95
2020-11-08 03:00:00 15.4 8 Este 12 Este 0 1019.7 -- 96
2020-11-08 02:00:00 15.8 5 Este 9 Este 0 1019.8 -- 96
2020-11-08 01:00:00 16 4 Sudeste 12 Sudeste 0 1020.2 -- 96
2020-11-08 00:00:00 15.6 6 Este 10 Sudeste 0 1020.3 -- 95
2020-11-07 23:00:00 15.7 3 Sudeste 9 Sudeste 0 1020.4 -- 92
2020-11-07 22:00:00 15.8 4 Este 8 Sudeste 0 1020.3 -- 90
2020-11-07 21:00:00 16.4 3 Sur 8 Sudeste 0 1020.2 -- 89
2020-11-07 20:00:00 16.8 5 Sudeste 7 Sudeste 0 1020 -- 89
2020-11-07 19:00:00 17.4 5 Sudeste 14 Sur 0 1019.4 -- 84
2020-11-07 18:00:00 19.4 9 Sur 18 Sur 0 1019.1 -- 75
2020-11-07 17:00:00 19.8 12 Sudoeste 27 Oeste 0 1018.9 -- 71
2020-11-07 16:00:00 20.6 15 Sudoeste 26 Sur 0 1018.7 -- 64
2020-11-07 15:00:00 20.9 17 Sur 29 Sur 0 1018.6 -- 61
2020-11-07 14:00:00 20.2 15 Sudoeste 25 Oeste 0 1018.8 -- 70
2020-11-07 13:00:00 20.7 16 Sur 24 Sudoeste 0 1018.7 -- 71
2020-11-07 12:00:00 19.8 13 Sudoeste 23 Oeste 0 1018.8 -- 70
2020-11-07 11:00:00 18.3 7 Sur 10 Sur 0 1018.2 -- 83
2020-11-07 10:00:00 16.4 3 Este 8 Sudeste 0 1017.4 -- 88
2020-11-07 09:00:00 14.1 5 Oeste 12 Oeste 0 1016.2 -- 97
2020-11-07 08:00:00 12.4 0 Calma 4 Nordeste 0.2 1014.9 -- 98
2020-11-07 07:00:00 13.1 0 Calma 6 Este 0 1013.5 -- 98
2020-11-07 06:00:00 13.7 4 Este 13 Norte 0 1012.6 -- 96
2020-11-07 05:00:00 14.3 0 Calma 11 Sudeste 0 1011.2 -- 96
2020-11-07 04:00:00 14.7 9 Sudeste 17 Oeste 0.4 1010.6 -- 95
2020-11-07 03:00:00 14.7 8 Este 21 Este 0.2 1010 -- 95
2020-11-07 02:00:00 14.7 7 Este 16 Este 0.6 1009.8 -- 96
2020-11-07 01:00:00 14.7 6 Este 21 Este 0.6 1009.7 -- 96
2020-11-07 00:00:00 14.8 6 Este 17 Sur 2 1010.3 -- 96
2020-11-06 23:00:00 14.5 12 Sur 51 Sudoeste 9.8 1010.6 -- 95
2020-11-06 22:00:00 15.9 10 Este 17 Este 0 1008.2 -- 88
2020-11-06 21:00:00 16.1 7 Este 22 Sudeste 0 1008.6 -- 87
2020-11-06 20:00:00 15.9 5 Sudeste 15 Este 0 1009.3 -- 90
2020-11-06 19:00:00 16.2 7 Nordeste 11 Este 0 1008.8 -- 88
2020-11-06 18:00:00 16.4 10 Este 15 Sudeste 0 1009.5 -- 87
2020-11-06 17:00:00 16.6 9 Oeste 29 Sudoeste 0 1008.9 -- 84
2020-11-06 16:00:00 17 19 Oeste 64 Oeste 0 1009.2 -- 75
2020-11-06 15:00:00 20.3 27 Sur 41 Sur 0 1008.4 -- 80
2020-11-06 14:00:00 20.7 20 Sur 32 Sur 0 1007.1 -- 78
2020-11-06 13:00:00 21 23 Sur 37 Sur 0 1008.2 -- 81
2020-11-06 12:00:00 20.6 21 Sur 30 Sur 0 1008.7 -- 83
2020-11-06 11:00:00 18.1 7 Este 12 Este 0 1008.3 1.3 78
2020-11-06 10:00:00 16.7 7 Este 13 Este 0 1008 -- 78
2020-11-06 09:00:00 16.3 8 Sudeste 14 Este 0 1007.7 -- 77
2020-11-06 08:00:00 16.1 7 Nordeste 16 Sudeste 0 1007 -- 76
2020-11-06 07:00:00 16.3 10 Este 21 Este 0 1007.2 -- 80
2020-11-06 06:00:00 15.6 8 Este 20 Nordeste 0.2 1007.2 -- 90
2020-11-06 05:00:00 15.8 5 Noroeste 12 Norte 0 1008.2 -- 89
2020-11-06 04:00:00 15.7 6 Nordeste 17 Nordeste 0 1009.5 -- 90
2020-11-06 03:00:00 15.5 9 Nordeste 19 Este 0 1009.4 -- 92
2020-11-06 02:00:00 15.2 10 Nordeste 17 Nordeste 0 1009.6 -- 93
2020-11-06 01:00:00 15.4 9 Nordeste 15 Este 0 1010.4 -- 94
2020-11-06 00:00:00 15.8 6 Nordeste 8 Nordeste 0 1010.7 -- 93
2020-11-05 23:00:00 16 4 Norte 8 Nordeste 0 1010.1 -- 92
2020-11-05 22:00:00 16.4 5 Nordeste 10 Norte 0 1009.4 -- 91
2020-11-05 21:00:00 16.9 3 Norte 10 Este 0 1008.9 -- 88
2020-11-05 20:00:00 17.6 4 Nordeste 12 Este 0 1008.6 -- 85
2020-11-05 19:00:00 18.7 8 Sudeste 12 Sudeste 0 1008.4 -- 79
2020-11-05 18:00:00 19.7 8 Sudeste 15 Sudeste 0 1007.9 -- 75
2020-11-05 17:00:00 20.2 9 Este 23 Este 0 1007.7 -- 72
2020-11-05 16:00:00 20.7 15 Sudeste 32 Sudeste 0 1007.7 -- 65
2020-11-05 15:00:00 21.1 20 Sudeste 35 Sudeste 0 1007.9 -- 61
2020-11-05 14:00:00 20.9 28 Sudeste 44 Sudeste 0 1008.4 -- 60
2020-11-05 13:00:00 19.9 26 Sudeste 47 Sudeste 0 1009.4 -- 64
2020-11-05 12:00:00 19.6 31 Sudeste 48 Sudeste 0.2 1009.8 -- 71
2020-11-05 11:00:00 18.6 25 Sudeste 40 Sudeste 0 1009.9 -- 81
2020-11-05 10:00:00 16.1 17 Sudeste 31 Sudeste 0 1009.8 -- 94
2020-11-05 09:00:00 15.6 23 Sudeste 34 Sudeste 0.4 1009 -- 94
2020-11-05 08:00:00 14.9 14 Sudeste 24 Sudeste 2 1008.3 -- 97
2020-11-05 07:00:00 14.7 10 Este 35 Sudeste 2.4 1007.8 -- 97
2020-11-05 06:00:00 14.4 10 Este 30 Este 4.2 1007.4 -- 97
2020-11-05 05:00:00 13.8 10 Nordeste 31 Este 3.2 1007 -- 96
2020-11-05 04:00:00 14.2 10 Nordeste 21 Este 5.8 1007.3 -- 96
2020-11-05 03:00:00 14.5 12 Este 23 Sudeste 5.8 1007.8 -- 96
2020-11-05 02:00:00 14.8 24 Sudeste 48 Sudeste 15.4 1008.2 -- 95
2020-11-05 01:00:00 15.3 8 Nordeste 27 Sudeste 5.2 1007.6 -- 96
2020-11-05 00:00:00 15.5 10 Este 18 Sudeste 3.6 1008.6 -- 94
2020-11-04 23:00:00 15.6 10 Nordeste 32 Este 14.4 1008.6 -- 92
2020-11-04 22:00:00 15.1 4 Este 25 Sudeste 6.8 1008.5 -- 89
2020-11-04 21:00:00 16.5 15 Sudeste 23 Sudeste 5.2 1008.1 -- 90
2020-11-04 20:00:00 17.1 9 Sudeste 31 Sudeste 3.6 1008.1 -- 91
2020-11-04 19:00:00 17.9 16 Sudeste 23 Sudeste 0 1008 -- 81
2020-11-04 18:00:00 18 9 Sudeste 20 Sudeste 0 1009.1 -- 81
2020-11-04 17:00:00 18.9 14 Sur 20 Sudeste 0 1009.6 -- 74
2020-11-04 16:00:00 18.4 5 Sudeste 11 Sur 0 1010.5 -- 73
2020-11-04 15:00:00 17.6 0 Calma 9 Sur 0 1011.3 -- 74
2020-11-04 14:00:00 16.8 8 Sur 13 Sudeste 0 1012.5 -- 76
2020-11-04 13:00:00 17.2 4 Sur 8 Sudoeste 0 1013.4 -- 72
2020-11-04 12:00:00 16.1 4 Oeste 9 Oeste 0 1014.2 -- 74
2020-11-04 11:00:00 15 7 Noroeste 16 Noroeste 0 1015 -0.8 77
2020-11-04 10:00:00 14.6 12 Noroeste 19 Noroeste 0 1015.5 -- 78
2020-11-04 09:00:00 13.4 9 Norte 14 Norte 0 1015.4 -- 83
2020-11-04 08:00:00 13.1 5 Norte 16 Norte 0 1015.8 -- 83
2020-11-04 07:00:00 13 9 Norte 23 Nordeste 0 1015.9 -- 82
2020-11-04 06:00:00 13.3 9 Norte 19 Norte 0 1016.3 -- 81
2020-11-04 05:00:00 13.6 4 Norte 18 Oeste 0 1016.7 -- 79
2020-11-04 04:00:00 13.7 10 Noroeste 23 Oeste 0 1017.4 -- 78
2020-11-04 03:00:00 14.6 10 Noroeste 24 Noroeste 0 1017.9 -- 73
2020-11-04 02:00:00 15.4 11 Noroeste 22 Noroeste 0 1018.2 -- 72
2020-11-04 01:00:00 16 8 Noroeste 18 Norte 0 1018.7 -- 73
2020-11-04 00:00:00 16.9 8 Noroeste 19 Noroeste 0 1019.2 -- 70
2020-11-03 23:00:00 17.1 9 Noroeste 15 Noroeste 0 1019.4 -- 72
2020-11-03 22:00:00 18.1 10 Noroeste 23 Noroeste 0 1019.8 -- 71
2020-11-03 21:00:00 19.2 7 Noroeste 16 Oeste 0 1019.7 -- 75
2020-11-03 20:00:00 20.2 6 Norte 17 Noroeste 0 1019.5 -- 75
2020-11-03 19:00:00 20.3 9 Noroeste 17 Noroeste 0 1019.5 -- 73
2020-11-03 18:00:00 20.8 6 Noroeste 10 Noroeste 0 1019.5 -- 73
2020-11-03 17:00:00 20.7 6 Noroeste 13 Noroeste 0 1019.7 -- 75
2020-11-03 16:00:00 20.5 10 Noroeste 17 Noroeste 0 1019.7 -- 71
2020-11-03 15:00:00 20.5 14 Noroeste 18 Oeste 0 1020 -- 70
2020-11-03 14:00:00 20 6 Noroeste 15 Noroeste 0 1020.3 -- 77
2020-11-03 13:00:00 17.7 6 Noroeste 19 Noroeste 0 1021 -- 83
2020-11-03 12:00:00 17.3 9 Noroeste 21 Noroeste 0 1021.3 -- 78
2020-11-03 11:00:00 16.6 10 Noroeste 26 Noroeste 0 1021.4 -- 76
2020-11-03 10:00:00 16.7 12 Noroeste 22 Noroeste 0 1021.3 -- 83
2020-11-03 09:00:00 17.1 10 Noroeste 19 Noroeste 0 1020.8 -- 84
2020-11-03 08:00:00 18 10 Norte 21 Norte 0 1020 -- 85
2020-11-03 07:00:00 17.1 4 Nordeste 7 Norte 0 1019.9 -- 89
2020-11-03 06:00:00 18.3 8 Norte 17 Norte 0 1019.7 -- 85
2020-11-03 05:00:00 18.5 10 Norte 20 Norte 0 1019.5 -- 84
2020-11-03 04:00:00 18.2 5 Norte 18 Nordeste 0 1019.7 -- 85
2020-11-03 03:00:00 18.3 8 Norte 19 Norte 0 1019.8 -- 83
2020-11-03 02:00:00 18.1 5 Oeste 19 Norte 0 1019.8 -- 83
2020-11-03 01:00:00 18.6 8 Norte 21 Oeste 0 1019.7 -- 81
2020-11-03 00:00:00 19 11 Noroeste 26 Oeste 0 1020 -- 80
2020-11-02 23:00:00 19.1 12 Noroeste 24 Noroeste 0 1020 -- 80
2020-11-02 22:00:00 19.8 5 Noroeste 18 Noroeste 0 1019.8 -- 77
2020-11-02 21:00:00 19.7 8 Noroeste 25 Oeste 0 1019.8 -- 77
2020-11-02 20:00:00 20.1 12 Noroeste 26 Noroeste 0 1019.8 -- 75
2020-11-02 19:00:00 21.4 13 Noroeste 36 Noroeste 0 1019.1 -- 68
2020-11-02 18:00:00 24.6 13 Noroeste 27 Noroeste 0 1018.6 -- 56
2020-11-02 17:00:00 27.8 10 Oeste 22 Oeste 0 1018.2 -- 44
2020-11-02 16:00:00 28.9 4 Sudoeste 12 Sudoeste 0 1018.2 -- 36
2020-11-02 15:00:00 27.9 4 Oeste 14 Norte 0 1018.5 -- 37
2020-11-02 14:00:00 26.6 5 Noroeste 13 Noroeste 0 1019.2 -- 41
2020-11-02 13:00:00 25.5 6 Norte 13 Nordeste 0 1020.1 -- 43
2020-11-02 12:00:00 23.9 4 Nordeste 13 Norte 0 1020.6 -- 51
2020-11-02 11:00:00 20.5 7 Norte 13 Norte 0 1020.8 -- 68
2020-11-02 10:00:00 17 7 Norte 11 Nordeste 0 1020.8 -- 82
2020-11-02 09:00:00 14.9 6 Norte 17 Norte 0 1020.2 -- 87
2020-11-02 08:00:00 14.4 13 Norte 19 Norte 0 1019.6 -- 90
2020-11-02 07:00:00 14.7 9 Norte 19 Norte 0 1019.6 -- 90
2020-11-02 06:00:00 15.4 12 Norte 20 Norte 0 1019.4 -- 87
2020-11-02 05:00:00 14.9 5 Norte 15 Norte 0 1019.3 -- 87
2020-11-02 04:00:00 15.9 10 Norte 18 Norte 0 1019.3 -- 84
2020-11-02 03:00:00 16 9 Norte 23 Norte 0 1019.6 -- 83
2020-11-02 02:00:00 17 14 Norte 26 Norte 0 1019.7 -- 79
2020-11-02 01:00:00 17.7 14 Norte 26 Norte 0 1020 -- 76
2020-11-02 00:00:00 17.9 10 Norte 17 Norte 0 1020.4 -- 75
2020-11-01 23:00:00 18.4 5 Noroeste 17 Noroeste 0 1020.5 -- 71
2020-11-01 22:00:00 19.3 8 Noroeste 27 Oeste 0 1020.6 -- 69
2020-11-01 21:00:00 19.7 10 Noroeste 22 Noroeste 0 1020.4 -- 70
2020-11-01 20:00:00 20.9 10 Noroeste 14 Noroeste 0 1020.3 -- 67
2020-11-01 19:00:00 22.3 4 Oeste 11 Noroeste 0 1020 -- 62
2020-11-01 18:00:00 24.3 9 Noroeste 21 Noroeste 0 1019.8 -- 55
2020-11-01 17:00:00 25.3 12 Noroeste 23 Noroeste 0 1020.3 -- 48
2020-11-01 16:00:00 26.1 7 Noroeste 15 Noroeste 0 1020.4 -- 46
2020-11-01 15:00:00 26.1 5 Norte 15 Oeste 0 1020.8 -- 45
2020-11-01 14:00:00 26 6 Norte 11 Norte 0 1021.4 -- 43
2020-11-01 13:00:00 24.8 4 Norte 12 Norte 0 1022.2 -- 50
2020-11-01 12:00:00 22.5 5 Noroeste 14 Norte 0 1022.8 -- 61
2020-11-01 11:00:00 19.7 8 Norte 15 Norte 0 1023.2 -- 72
2020-11-01 10:00:00 17.4 7 Norte 17 Norte 0 1023 -- 79
2020-11-01 09:00:00 14.8 11 Norte 22 Norte 0 1022.5 -- 88
2020-11-01 08:00:00 14.4 11 Norte 22 Norte 0 1022 -- 90
2020-11-01 07:00:00 14.5 5 Norte 15 Norte 0 1021.7 -- 88
2020-11-01 06:00:00 15.4 9 Norte 17 Norte 0 1021.8 -- 87
2020-11-01 05:00:00 15.7 9 Norte 14 Norte 0 1021.8 -- 86
2020-11-01 04:00:00 16 9 Norte 14 Norte 0 1022.2 -- 84
2020-11-01 03:00:00 16.8 9 Norte 14 Norte 0 1022.4 -- 80
2020-11-01 02:00:00 15.7 4 Norte 8 Nordeste 0 1022.4 -- 84
2020-11-01 01:00:00 18 8 Norte 20 Norte 0 1022.7 -- 75
2020-11-01 00:00:00 18.6 6 Noroeste 21 Nordeste 0 1022.8 -- 73
2020-10-31 23:00:00 19.3 7 Noroeste 25 Oeste 0 1022.5 -- 67
2020-10-31 22:00:00 17 8 Oeste 11 Oeste 0 1022.2 -- 82
2020-10-31 21:00:00 17.2 3 Noroeste 5 Noroeste 0 1022.3 -- 80
2020-10-31 20:00:00 18.5 0 Calma 14 Sudoeste 0 1022.2 -- 73
2020-10-31 19:00:00 19.6 10 Sudoeste 21 Sudoeste 0 1021.6 -- 65
2020-10-31 18:00:00 21.4 12 Sudoeste 23 Sudoeste 0 1021.2 -- 54
2020-10-31 17:00:00 24.5 15 Sudoeste 22 Sudoeste 0 1021.2 -- 48
2020-10-31 16:00:00 26 13 Sudoeste 20 Sur 0 1021.1 -- 44
2020-10-31 15:00:00 26.8 9 Sur 17 Sur 0 1021.2 -- 41
2020-10-31 14:00:00 25.7 4 Noroeste 11 Noroeste 0 1022.4 -- 41
2020-10-31 13:00:00 23.8 5 Este 13 Sudeste 0 1022.8 -- 44
2020-10-31 12:00:00 21.9 4 Este 12 Este 0 1023.4 -- 52
2020-10-31 11:00:00 19.4 4 Norte 14 Noroeste 0 1023.9 -- 57
2020-10-31 10:00:00 15.9 9 Norte 15 Noroeste 0 1024 -- 75
2020-10-31 09:00:00 13.4 8 Nordeste 12 Nordeste 0 1023.1 -- 82
2020-10-31 08:00:00 11.8 4 Nordeste 7 Nordeste 0 1022.2 -- 88
2020-10-31 07:00:00 12.4 4 Nordeste 10 Noroeste 0 1021.9 -- 87
2020-10-31 06:00:00 12.8 3 Noroeste 12 Nordeste 0 1021.9 -- 85
2020-10-31 05:00:00 13.2 8 Nordeste 11 Nordeste 0 1021.1 -- 83
2020-10-31 04:00:00 13.3 6 Nordeste 10 Nordeste 0 1021.2 -- 83
2020-10-31 03:00:00 14.2 4 Nordeste 11 Norte 0 1021.3 -- 79
2020-10-31 02:00:00 15 6 Norte 15 Norte 0 1021.4 -- 76
2020-10-31 01:00:00 16.5 10 Noroeste 16 Noroeste 0 1021.3 -- 71
2020-10-31 00:00:00 17.5 7 Noroeste 10 Noroeste 0 1021.3 -- 67
2020-10-30 23:00:00 17.4 7 Noroeste 11 Noroeste 0 1021.4 -- 68
2020-10-30 22:00:00 17.8 3 Norte 9 Nordeste 0 1021.2 -- 64
2020-10-30 21:00:00 17.9 3 Sudoeste 6 Este 0 1020.9 -- 68
2020-10-30 20:00:00 20.3 4 Oeste 11 Noroeste 0 1020.8 -- 50
2020-10-30 19:00:00 21.5 4 Sur 12 Sudoeste 0 1020.3 -- 54
2020-10-30 18:00:00 24.9 9 Sudoeste 13 Sudoeste 0 1020 -- 37
2020-10-30 17:00:00 27.9 5 Sudoeste 10 Oeste 0 1019.9 -- 30
2020-10-30 16:00:00 27 3 Noroeste 9 Nordeste 0 1019.9 -- 33
2020-10-30 15:00:00 26.2 5 Nordeste 14 Nordeste 0 1020.3 -- 34
2020-10-30 14:00:00 26 6 Nordeste 12 Este 0 1020.8 -- 37
2020-10-30 13:00:00 24.4 6 Nordeste 12 Norte 0 1021.4 -- 43
2020-10-30 12:00:00 23.4 5 Nordeste 15 Este 0 1022 -- 44
2020-10-30 11:00:00 21.6 10 Este 18 Este 0 1022.1 -- 54
2020-10-30 10:00:00 18.7 9 Nordeste 14 Nordeste 0 1022 -- 63
2020-10-30 09:00:00 15.4 5 Norte 10 Nordeste 0 1021.6 -- 72
2020-10-30 08:00:00 13.1 4 Nordeste 10 Nordeste 0 1020.9 -- 80
2020-10-30 07:00:00 12.5 5 Nordeste 10 Nordeste 0 1020.7 -- 82
2020-10-30 06:00:00 12.6 6 Norte 10 Norte 0 1020.5 -- 81
2020-10-30 05:00:00 12.5 5 Norte 8 Norte 0 1020.6 -- 85
2020-10-30 04:00:00 13.3 4 Nordeste 8 Norte 0 1020.8 -- 80
2020-10-30 03:00:00 14.3 7 Norte 10 Nordeste 0 1020.9 -- 79
2020-10-30 02:00:00 13.7 4 Nordeste 8 Nordeste 0 1021.1 -- 82
2020-10-30 01:00:00 14.4 4 Norte 9 Nordeste 0 1021.2 -- 81
2020-10-30 00:00:00 15.5 4 Norte 9 Noroeste 0 1021.3 -- 78
2020-10-29 23:00:00 16.3 2 Noroeste 8 Noroeste 0 1021.4 -- 78
2020-10-29 22:00:00 17 0 Calma 3 Este 0 1021.1 -- 76
2020-10-29 21:00:00 18.3 2 Este 7 Noroeste 0 1020.7 -- 72
2020-10-29 20:00:00 20.5 6 Oeste 8 Oeste 0 1020.5 -- 59
2020-10-29 19:00:00 22.5 4 Sudoeste 7 Este 0 1020.1 -- 57
2020-10-29 18:00:00 25.6 6 Este 15 Este 0 1019.8 -- 41
2020-10-29 17:00:00 26.8 9 Este 19 Este 0 1019.8 -- 34
2020-10-29 16:00:00 26.9 10 Este 22 Este 0 1019.7 -- 35
2020-10-29 15:00:00 26.3 14 Este 25 Este 0 1020 -- 36
2020-10-29 14:00:00 25.5 13 Este 29 Este 0 1020.8 -- 40
2020-10-29 13:00:00 24.1 15 Este 28 Este 0 1021.7 -- 48
2020-10-29 12:00:00 22.7 13 Este 21 Este 0 1022.3 -- 57
2020-10-29 11:00:00 20.5 8 Nordeste 12 Nordeste 0 1022.6 -- 68
2020-10-29 10:00:00 16.9 6 Norte 10 Norte 0 1022.6 -- 82
2020-10-29 09:00:00 14.6 4 Nordeste 9 Norte 0 1022.2 -- 88
2020-10-29 08:00:00 13.9 6 Norte 12 Norte 0 1021.6 -- 93
2020-10-29 07:00:00 13.2 4 Norte 9 Norte 0 1021.3 -- 94
2020-10-29 06:00:00 14.1 7 Norte 20 Norte 0 1021 -- 92
2020-10-29 05:00:00 14.5 8 Norte 14 Norte 0 1020.8 -- 93
2020-10-29 04:00:00 14.3 7 Norte 10 Norte 0 1020.7 -- 93
2020-10-29 03:00:00 14.5 5 Nordeste 10 Norte 0 1021 -- 91
2020-10-29 02:00:00 15.5 5 Norte 11 Norte 0 1020.9 -- 89
2020-10-29 01:00:00 15.9 3 Nordeste 12 Norte 0 1021.2 -- 86
2020-10-29 00:00:00 16.4 5 Norte 13 Nordeste 0 1021.4 -- 85
2020-10-28 23:00:00 17 9 Norte 19 Norte 0 1021.4 -- 84
2020-10-28 22:00:00 18.7 10 Norte 19 Nordeste 0 1021.2 -- 77
2020-10-28 21:00:00 19 5 Noroeste 15 Oeste 0 1020.9 -- 74
2020-10-28 20:00:00 18 2 Sur 9 Sudoeste 0 1020.5 -- 79
2020-10-28 19:00:00 19.3 0 Calma 14 Sudoeste 0 1019.8 -- 72
2020-10-28 18:00:00 21.3 8 Sudoeste 16 Sudoeste 0 1019.5 -- 60
2020-10-28 17:00:00 23 13 Sudoeste 18 Noroeste 0 1019.5 -- 54
2020-10-28 16:00:00 23.9 12 Oeste 20 Noroeste 0 1019.7 -- 50
2020-10-28 15:00:00 22.1 6 Norte 13 Norte 0 1020 -- 50
2020-10-28 14:00:00 21 6 Norte 14 Sudeste 0 1020.5 -- 51
2020-10-28 13:00:00 19.4 4 Norte 10 Nordeste 0 1021.4 -- 56
2020-10-28 12:00:00 17.9 6 Nordeste 11 Norte 0 1021.9 -- 61
2020-10-28 11:00:00 14.6 6 Norte 10 Nordeste 0 1021.8 -- 74
2020-10-28 10:00:00 12.9 4 Nordeste 10 Nordeste 0 1021.6 -- 79
2020-10-28 09:00:00 11.3 7 Nordeste 9 Nordeste 0 1021 -- 83
2020-10-28 08:00:00 9.9 4 Norte 8 Norte 0 1020.3 -- 91
2020-10-28 07:00:00 10.1 4 Nordeste 10 Norte 0 1019.9 -- 88
2020-10-28 06:00:00 11.6 4 Norte 13 Norte 0 1019.5 -- 83
2020-10-28 05:00:00 11.1 8 Noroeste 13 Norte 0 1019.3 -- 85
2020-10-28 04:00:00 11.8 8 Norte 17 Norte 0 1019.4 -- 83
2020-10-28 03:00:00 12.8 9 Noroeste 19 Noroeste 0 1019.5 -- 78
2020-10-28 02:00:00 13.3 11 Noroeste 23 Noroeste 0 1019.6 -- 76
2020-10-28 01:00:00 14 11 Noroeste 21 Noroeste 0 1019.8 -- 73
2020-10-28 00:00:00 13.4 10 Noroeste 14 Noroeste 0 1020 -- 77
2020-10-27 23:00:00 14.4 10 Noroeste 12 Noroeste 0 1019.9 -- 74
2020-10-27 22:00:00 14.7 2 Oeste 6 Oeste 0 1019.8 -- 72
2020-10-27 21:00:00 15.6 3 Oeste 9 Noroeste 0 1019.5 -- 66
2020-10-27 20:00:00 15.9 6 Oeste 18 Noroeste 0 1019.3 -- 65
2020-10-27 19:00:00 17.7 8 Noroeste 16 Oeste 0 1018.9 -- 56
2020-10-27 18:00:00 18.4 13 Sudoeste 22 Sudoeste 0 1018.7 -- 58
2020-10-27 17:00:00 21.1 14 Oeste 32 Oeste 0 1018.7 -- 44
2020-10-27 16:00:00 21 17 Noroeste 32 Oeste 0 1018.8 -- 41
2020-10-27 15:00:00 20.3 10 Noroeste 33 Noroeste 0 1019.1 -- 41
2020-10-27 14:00:00 19.5 9 Noroeste 18 Norte 0 1020 -- 41
2020-10-27 13:00:00 18.9 7 Norte 23 Norte 0 1020.8 -- 38
2020-10-27 12:00:00 18.1 9 Norte 18 Norte 0 1021.3 -- 46
2020-10-27 11:00:00 15.9 5 Norte 13 Norte 0 1021.4 -- 61
2020-10-27 10:00:00 12.8 8 Norte 19 Norte 0 1021.7 -- 78
2020-10-27 09:00:00 10.2 9 Norte 13 Norte 0 1021.1 -- 84
2020-10-27 08:00:00 8.7 5 Norte 10 Norte 0 1020.7 -- 89
2020-10-27 07:00:00 8.8 4 Norte 10 Norte 0 1020.5 -- 89
2020-10-27 06:00:00 9.4 6 Norte 12 Norte 0 1020.1 -- 87
2020-10-27 05:00:00 9.5 6 Norte 21 Noroeste 0 1020 -- 88
2020-10-27 04:00:00 10.8 12 Norte 22 Norte 0 1020.2 -- 83
2020-10-27 03:00:00 11 8 Noroeste 19 Noroeste 0 1020.6 -- 82
2020-10-27 02:00:00 11.6 8 Noroeste 15 Noroeste 0 1020.8 -- 79
2020-10-27 01:00:00 12.1 6 Noroeste 21 Noroeste 0 1021.2 -- 76
2020-10-27 00:00:00 12.2 8 Noroeste 17 Oeste 0 1021.5 -- 75